createdAt,value
2018-09-27T00:01:20.566Z,14.87
2018-09-27T00:03:55.312Z,8.33
2018-09-27T00:06:29.702Z,31.00
2018-09-27T00:09:04.683Z,7.97
2018-09-27T00:11:39.204Z,8.70
2018-09-27T00:14:13.923Z,10.20
2018-09-27T00:16:48.554Z,8.85
2018-09-27T00:19:23.168Z,25.52
2018-09-27T00:21:57.636Z,49.95
2018-09-27T00:24:32.204Z,45.73
2018-09-27T00:27:06.767Z,28.15
2018-09-27T00:29:41.641Z,20.48
2018-09-27T00:32:16.667Z,14.15
2018-09-27T00:34:51.083Z,7.03
2018-09-27T00:37:25.751Z,6.17
2018-09-27T00:40:00.341Z,12.00
2018-09-27T00:42:35.300Z,15.88
2018-09-27T00:45:09.872Z,15.80
2018-09-27T00:47:44.669Z,12.23
2018-09-27T00:50:19.677Z,8.28
2018-09-27T00:52:54.437Z,19.00
2018-09-27T00:55:29.316Z,6.67
2018-09-27T00:58:04.028Z,16.40
2018-09-27T01:00:39.067Z,7.85
2018-09-27T01:03:13.668Z,17.90
2018-09-27T01:05:48.418Z,7.10
2018-09-27T01:08:23.152Z,11.20
2018-09-27T01:10:57.693Z,11.25
2018-09-27T01:13:32.304Z,20.15
2018-09-27T01:16:07.200Z,7.15
2018-09-27T01:18:41.627Z,17.07
2018-09-27T01:21:16.138Z,34.73
2018-09-27T01:23:50.994Z,72.87
2018-09-27T01:26:26.207Z,100.95
2018-09-27T01:29:01.093Z,179.87
2018-09-27T01:31:36.133Z,36.73
2018-09-27T01:34:10.940Z,26.73
2018-09-27T01:36:45.943Z,14.50
2018-09-27T01:39:20.546Z,7.87
2018-09-27T01:41:55.090Z,8.60
2018-09-27T01:44:29.781Z,7.17
2018-09-27T01:47:04.429Z,7.90
2018-09-27T01:49:39.250Z,9.60
2018-09-27T01:52:14.081Z,7.30
2018-09-27T01:54:48.696Z,5.97
2018-09-27T01:57:23.401Z,8.73
2018-09-27T01:59:58.329Z,10.03
2018-09-27T02:02:33.187Z,9.15
2018-09-27T02:05:07.969Z,10.90
2018-09-27T02:07:42.831Z,7.90
2018-09-27T02:10:17.715Z,15.18
2018-09-27T02:12:52.381Z,10.15
2018-09-27T02:15:28.238Z,8.03
2018-09-27T02:18:03.001Z,9.95
2018-09-27T02:20:38.528Z,8.30
2018-09-27T02:23:13.297Z,9.88
2018-09-27T02:25:47.928Z,8.53
2018-09-27T02:28:22.788Z,6.35
2018-09-27T02:30:57.686Z,7.08
2018-09-27T02:33:32.590Z,13.08
2018-09-27T02:36:07.199Z,70.03
2018-09-27T02:38:42.130Z,82.10
2018-09-27T02:41:16.789Z,107.35
2018-09-27T02:43:51.571Z,38.15
2018-09-27T02:46:27.329Z,24.65
2018-09-27T02:49:02.158Z,6.00
2018-09-27T02:51:37.106Z,6.70
2018-09-27T02:54:11.806Z,8.40
2018-09-27T02:56:46.540Z,9.60
2018-09-27T02:59:21.135Z,5.62
2018-09-27T03:01:55.678Z,5.15
2018-09-27T03:04:30.469Z,7.70
2018-09-27T03:07:05.197Z,10.23
2018-09-27T03:09:40.477Z,5.80
2018-09-27T03:12:15.071Z,7.10
2018-09-27T03:14:49.833Z,5.55
2018-09-27T03:17:24.437Z,8.08
2018-09-27T03:19:59.402Z,4.12
2018-09-27T03:22:34.777Z,6.37
2018-09-27T03:25:09.619Z,7.20
2018-09-27T03:27:44.285Z,6.87
2018-09-27T03:30:19.196Z,5.60
2018-09-27T03:35:34.286Z,8.65
2018-09-27T03:38:09.002Z,46.73
2018-09-27T03:40:44.011Z,54.08
2018-09-27T03:43:18.825Z,88.85
2018-09-27T03:45:53.580Z,55.95
2018-09-27T03:48:28.347Z,26.30
2018-09-27T03:51:03.121Z,13.45
2018-09-27T03:53:37.999Z,3.58
2018-09-27T03:56:13.062Z,10.50
2018-09-27T03:58:47.854Z,5.70
2018-09-27T04:01:22.607Z,5.87
2018-09-27T04:03:57.433Z,5.55
2018-09-27T04:06:32.336Z,5.03
2018-09-27T04:09:08.368Z,4.60
2018-09-27T04:11:43.144Z,8.40
2018-09-27T04:14:17.791Z,5.60
2018-09-27T04:16:52.570Z,4.60
2018-09-27T04:19:27.299Z,10.13
2018-09-27T04:22:02.004Z,7.00
2018-09-27T04:24:36.847Z,12.28
2018-09-27T04:27:11.451Z,8.73
2018-09-27T04:29:46.365Z,6.15
2018-09-27T04:32:21.067Z,6.40
2018-09-27T04:34:56.951Z,12.05
2018-09-27T04:37:33.697Z,9.78
2018-09-27T04:40:08.215Z,11.40
2018-09-27T04:42:42.943Z,11.75
2018-09-27T04:45:18.231Z,10.13
2018-09-27T04:47:54.244Z,5.40
2018-09-27T04:50:28.884Z,7.95
2018-09-27T04:53:03.858Z,10.60
2018-09-27T04:55:38.665Z,12.35
2018-09-27T04:58:13.364Z,7.15
2018-09-27T05:00:48.076Z,10.48
2018-09-27T05:03:22.969Z,10.00
2018-09-27T05:05:57.768Z,8.18
2018-09-27T05:08:32.355Z,7.83
2018-09-27T05:11:07.088Z,12.13
2018-09-27T05:13:41.988Z,10.55
2018-09-27T05:16:16.908Z,14.23
2018-09-27T05:18:51.724Z,11.68
2018-09-27T05:21:26.422Z,8.15
2018-09-27T05:24:01.176Z,14.07
2018-09-27T05:26:35.941Z,31.20
2018-09-27T05:29:10.957Z,94.20
2018-09-27T05:31:45.691Z,104.97
2018-09-27T05:34:21.266Z,23.45
2018-09-27T05:36:56.217Z,14.40
2018-09-27T05:39:31.017Z,8.68
2018-09-27T05:42:05.848Z,15.50
2018-09-27T05:44:40.492Z,12.40
2018-09-27T05:47:15.444Z,9.28
2018-09-27T05:49:50.135Z,9.73
2018-09-27T05:52:25.017Z,19.62
2018-09-27T05:54:59.868Z,5.40
2018-09-27T05:57:34.561Z,17.25
2018-09-27T06:00:09.283Z,6.97
2018-09-27T06:02:44.039Z,14.13
2018-09-27T06:05:18.816Z,9.15
2018-09-27T06:07:53.695Z,6.65
2018-09-27T06:10:28.510Z,24.50
2018-09-27T06:13:03.370Z,7.80
2018-09-27T06:15:38.264Z,11.08
2018-09-27T06:18:13.417Z,7.03
2018-09-27T06:20:48.596Z,5.22
2018-09-27T06:23:23.516Z,7.30
2018-09-27T06:25:58.437Z,5.92
2018-09-27T06:28:33.270Z,7.35
2018-09-27T06:31:08.410Z,6.55
2018-09-27T06:33:43.194Z,4.95
2018-09-27T06:36:18.035Z,7.45
2018-09-27T06:38:52.816Z,8.88
2018-09-27T06:41:27.702Z,16.45
2018-09-27T06:44:02.555Z,106.72
2018-09-27T06:46:37.172Z,145.85
2018-09-27T06:49:12.079Z,85.53
2018-09-27T06:51:46.991Z,90.65
2018-09-27T06:54:21.819Z,24.18
2018-09-27T06:56:56.663Z,6.12
2018-09-27T06:59:31.481Z,2.75
2018-09-27T07:02:07.159Z,4.85
2018-09-27T07:04:41.987Z,2.98
2018-09-27T07:07:16.758Z,4.50
2018-09-27T07:09:51.454Z,4.87
2018-09-27T07:12:26.491Z,6.03
2018-09-27T07:15:01.053Z,10.88
2018-09-27T07:17:35.659Z,2.92
2018-09-27T07:20:10.483Z,4.40
2018-09-27T07:22:45.321Z,5.35
2018-09-27T07:25:20.193Z,7.83
2018-09-27T07:27:55.208Z,3.35
2018-09-27T07:30:30.103Z,9.13
2018-09-27T07:33:04.622Z,9.43
2018-09-27T07:35:39.241Z,5.37
2018-09-27T07:38:13.764Z,6.60
2018-09-27T07:40:48.110Z,4.62
2018-09-27T07:43:22.443Z,2.60
2018-09-27T07:45:57.373Z,3.37
2018-09-27T07:48:32.139Z,2.35
2018-09-27T07:51:06.541Z,10.10
2018-09-27T07:53:41.061Z,40.48
2018-09-27T07:56:15.468Z,55.48
2018-09-27T07:58:49.843Z,44.27
2018-09-27T08:01:24.444Z,15.43
2018-09-27T08:03:58.941Z,2.40
2018-09-27T08:06:33.451Z,3.92
2018-09-27T08:09:08.767Z,2.72
2018-09-27T08:11:43.153Z,3.95
2018-09-27T08:14:17.568Z,6.75
2018-09-27T08:16:52.096Z,4.92
2018-09-27T08:19:26.634Z,2.37
2018-09-27T08:22:01.304Z,3.30
2018-09-27T08:24:35.903Z,5.72
2018-09-27T08:27:10.270Z,25.75
2018-09-27T08:29:44.876Z,23.65
2018-09-27T08:32:19.425Z,19.87
2018-09-27T08:34:53.844Z,23.02
2018-09-27T08:37:28.227Z,11.05
2018-09-27T08:40:02.614Z,12.45
2018-09-27T08:42:37.155Z,16.15
2018-09-27T08:45:11.930Z,8.38
2018-09-27T08:47:46.350Z,12.78
2018-09-27T08:50:20.863Z,11.68
2018-09-27T08:52:55.323Z,26.48
2018-09-27T08:55:29.984Z,37.23
2018-09-27T08:58:04.352Z,16.25
2018-09-27T09:00:38.758Z,14.35
2018-09-27T09:03:13.443Z,5.62
2018-09-27T09:05:48.067Z,5.75
2018-09-27T09:08:22.624Z,6.90
2018-09-27T09:10:57.382Z,7.10
2018-09-27T09:13:31.791Z,2.30
2018-09-27T09:16:06.544Z,2.47
2018-09-27T09:18:40.914Z,2.17
2018-09-27T09:21:15.231Z,3.25
2018-09-27T09:23:49.563Z,12.95
2018-09-27T09:26:24.106Z,2.90
2018-09-27T09:28:58.566Z,2.85
2018-09-27T09:31:33.091Z,5.95
2018-09-27T09:34:07.643Z,5.70
2018-09-27T09:36:42.043Z,1.72
2018-09-27T09:39:16.658Z,3.60
2018-09-27T09:41:51.200Z,1.52
2018-09-27T09:44:25.824Z,5.37
2018-09-27T09:47:00.312Z,1.45
2018-09-27T09:49:34.778Z,4.10
2018-09-27T09:52:09.252Z,2.20
2018-09-27T09:54:43.734Z,22.00
2018-09-27T09:57:18.386Z,18.50
2018-09-27T09:59:52.883Z,28.70
2018-09-27T10:02:28.383Z,7.12
2018-09-27T10:05:02.843Z,1.80
2018-09-27T10:07:37.370Z,11.10
2018-09-27T10:10:11.775Z,2.90
2018-09-27T10:12:46.118Z,1.10
2018-09-27T10:15:20.483Z,6.53
2018-09-27T10:17:55.039Z,8.03
2018-09-27T10:20:29.483Z,2.42
2018-09-27T10:23:04.068Z,1.20
2018-09-27T10:25:38.592Z,1.45
2018-09-27T10:28:14.242Z,1.17
2018-09-27T10:30:48.791Z,2.52
2018-09-27T10:33:23.177Z,3.30
2018-09-27T10:35:57.748Z,3.10
2018-09-27T10:38:32.187Z,5.12
2018-09-27T10:41:06.944Z,3.30
2018-09-27T10:43:41.489Z,4.00
2018-09-27T10:46:16.083Z,4.20
2018-09-27T10:48:50.483Z,1.65
2018-09-27T10:51:24.873Z,2.42
2018-09-27T10:53:59.228Z,20.17
2018-09-27T10:56:33.507Z,28.40
2018-09-27T10:59:07.936Z,10.93
2018-09-27T11:01:42.279Z,68.85
2018-09-27T11:04:16.700Z,6.78
2018-09-27T11:06:51.027Z,2.95
2018-09-27T11:09:25.372Z,1.10
2018-09-27T11:11:59.920Z,1.20
2018-09-27T11:14:34.327Z,5.20
2018-09-27T11:17:08.691Z,2.58
2018-09-27T11:19:43.122Z,2.40
2018-09-27T11:22:17.506Z,1.67
2018-09-27T11:24:51.927Z,1.57
2018-09-27T11:27:26.370Z,4.25
2018-09-27T11:30:06.031Z,4.75
2018-09-27T11:32:43.318Z,1.42
2018-09-27T11:35:17.869Z,3.70
2018-09-27T11:37:52.291Z,1.45
2018-09-27T11:40:26.683Z,4.15
2018-09-27T11:43:01.088Z,3.10
2018-09-27T11:45:35.601Z,1.37
2018-09-27T11:48:09.941Z,1.77
2018-09-27T11:50:44.556Z,1.80
2018-09-27T11:53:18.936Z,11.48
2018-09-27T11:55:54.270Z,5.97
2018-09-27T11:58:28.784Z,16.07
2018-09-27T12:01:03.260Z,21.30
2018-09-27T12:03:37.700Z,23.80
2018-09-27T12:06:12.207Z,6.28
2018-09-27T12:08:46.609Z,1.37
2018-09-27T12:11:21.084Z,1.22
2018-09-27T12:13:55.450Z,2.40
2018-09-27T12:16:29.837Z,2.60
2018-09-27T12:19:04.172Z,1.30
2018-09-27T12:21:38.726Z,1.52
2018-09-27T12:24:13.273Z,3.00
2018-09-27T12:26:47.839Z,3.58
2018-09-27T12:29:22.352Z,4.20
2018-09-27T12:31:56.855Z,5.37
2018-09-27T12:34:31.394Z,18.52
2018-09-27T12:37:06.022Z,3.40
2018-09-27T12:39:40.512Z,4.75
2018-09-27T12:42:14.933Z,4.62
2018-09-27T12:44:49.185Z,5.20
2018-09-27T12:47:23.551Z,3.55
2018-09-27T12:49:57.928Z,3.87
2018-09-27T12:52:32.304Z,4.00
2018-09-27T12:55:06.761Z,2.08
2018-09-27T12:57:41.120Z,26.55
2018-09-27T13:00:15.608Z,28.57
2018-09-27T13:02:50.204Z,32.30
2018-09-27T13:05:24.688Z,11.53
2018-09-27T13:07:59.239Z,13.00
2018-09-27T13:10:33.672Z,10.15
2018-09-27T13:13:08.053Z,4.75
2018-09-27T13:15:42.579Z,3.30
2018-09-27T13:18:16.935Z,6.65
2018-09-27T13:20:51.380Z,1.98
2018-09-27T13:23:26.096Z,4.55
2018-09-27T13:26:00.603Z,14.63
2018-09-27T13:28:35.197Z,3.27
2018-09-27T13:31:09.797Z,8.40
2018-09-27T13:33:44.071Z,2.12
2018-09-27T13:36:18.434Z,1.77
2018-09-27T13:38:53.142Z,3.62
2018-09-27T13:41:28.528Z,6.25
2018-09-27T13:44:02.980Z,5.47
2018-09-27T13:46:37.760Z,11.57
2018-09-27T13:49:12.397Z,2.52
2018-09-27T13:51:47.041Z,4.90
2018-09-27T13:54:21.680Z,16.70
2018-09-27T13:56:56.225Z,30.15
2018-09-27T13:59:30.682Z,24.80
2018-09-27T14:02:05.152Z,35.75
2018-09-27T14:04:39.526Z,13.90
2018-09-27T14:07:13.854Z,10.88
2018-09-27T14:09:48.221Z,5.00
2018-09-27T14:12:22.775Z,2.27
2018-09-27T14:14:57.164Z,3.00
2018-09-27T14:17:31.635Z,4.05
2018-09-27T14:20:07.081Z,4.42
2018-09-27T14:22:41.420Z,11.50
2018-09-27T14:25:15.864Z,7.53
2018-09-27T14:27:50.120Z,1.85
2018-09-27T14:30:24.545Z,4.72
2018-09-27T14:32:58.905Z,1.35
2018-09-27T14:35:33.235Z,12.98
2018-09-27T14:38:07.600Z,2.15
2018-09-27T14:40:41.939Z,1.25
2018-09-27T14:43:16.234Z,1.50
2018-09-27T14:45:51.640Z,7.83
2018-09-27T14:48:26.131Z,17.42
2018-09-27T14:51:01.363Z,8.00
2018-09-27T14:53:35.785Z,2.83
2018-09-27T14:56:10.182Z,4.42
2018-09-27T14:58:44.747Z,16.27
2018-09-27T15:01:19.224Z,47.20
2018-09-27T15:03:53.833Z,43.00
2018-09-27T15:06:28.290Z,5.65
2018-09-27T15:09:02.617Z,3.90
2018-09-27T15:11:36.979Z,10.08
2018-09-27T15:14:11.364Z,6.08
2018-09-27T15:16:45.928Z,2.52
2018-09-27T15:19:20.307Z,3.08
2018-09-27T15:21:54.586Z,1.62
2018-09-27T15:24:29.101Z,12.33
2018-09-27T15:27:03.512Z,2.85
2018-09-27T15:29:37.944Z,8.65
2018-09-27T15:32:12.367Z,1.90
2018-09-27T15:34:46.779Z,5.30
2018-09-27T15:37:21.196Z,3.40
2018-09-27T15:39:55.639Z,3.37
2018-09-27T15:42:30.028Z,3.00
2018-09-27T15:45:04.460Z,1.70
2018-09-27T15:47:38.883Z,1.07
2018-09-27T15:50:13.408Z,15.48
2018-09-27T15:52:47.728Z,3.83
2018-09-27T15:55:21.995Z,18.12
2018-09-27T15:57:56.620Z,9.35
2018-09-27T16:00:31.001Z,28.05
2018-09-27T16:03:05.321Z,61.83
2018-09-27T16:05:39.634Z,31.70
2018-09-27T16:08:14.031Z,21.00
2018-09-27T16:10:48.359Z,13.40
2018-09-27T16:13:22.761Z,3.50
2018-09-27T16:15:57.312Z,7.83
2018-09-27T16:18:31.612Z,13.88
2018-09-27T16:21:06.141Z,8.78
2018-09-27T16:23:40.760Z,9.78
2018-09-27T16:26:15.057Z,5.90
2018-09-27T16:28:49.604Z,8.80
2018-09-27T16:31:24.136Z,2.80
2018-09-27T16:33:58.591Z,2.05
2018-09-27T16:36:33.539Z,2.58
2018-09-27T16:39:09.279Z,1.45
2018-09-27T16:41:43.827Z,2.70
2018-09-27T16:44:18.275Z,2.67
2018-09-27T16:46:53.632Z,8.20
2018-09-27T16:49:28.129Z,1.75
2018-09-27T16:52:02.475Z,2.75
2018-09-27T16:54:37.021Z,4.72
2018-09-27T16:57:11.592Z,2.42
2018-09-27T16:59:46.170Z,9.95
2018-09-27T17:02:20.481Z,38.70
2018-09-27T17:04:54.962Z,9.25
2018-09-27T17:07:29.304Z,8.28
2018-09-27T17:10:03.760Z,9.98
2018-09-27T17:12:39.088Z,2.60
2018-09-27T17:15:13.501Z,6.12
2018-09-27T17:17:47.892Z,3.55
2018-09-27T17:20:22.296Z,5.95
2018-09-27T17:22:56.735Z,10.82
2018-09-27T17:25:31.148Z,3.17
2018-09-27T17:28:05.472Z,6.17
2018-09-27T17:30:39.875Z,3.47
2018-09-27T17:33:14.339Z,5.70
2018-09-27T17:35:48.771Z,3.87
2018-09-27T17:38:23.234Z,6.53
2018-09-27T17:40:57.671Z,8.05
2018-09-27T17:43:32.202Z,3.50
2018-09-27T17:46:06.699Z,7.58
2018-09-27T17:48:41.043Z,5.33
2018-09-27T17:51:15.440Z,7.00
2018-09-27T17:53:49.712Z,8.55
2018-09-27T17:56:24.132Z,7.12
2018-09-27T17:58:58.805Z,17.60
2018-09-27T18:01:33.271Z,19.75
2018-09-27T18:04:07.659Z,32.55
2018-09-27T18:06:42.060Z,76.02
2018-09-27T18:09:16.494Z,36.75
2018-09-27T18:11:50.899Z,37.60
2018-09-27T18:14:25.236Z,7.67
2018-09-27T18:16:59.504Z,7.03
2018-09-27T18:19:33.780Z,6.37
2018-09-27T18:22:08.160Z,12.68
2018-09-27T18:24:42.717Z,7.53
2018-09-27T18:27:16.983Z,10.32
2018-09-27T18:29:51.336Z,42.75
2018-09-27T18:32:25.640Z,100.27
2018-09-27T18:35:01.032Z,54.23
2018-09-27T18:37:35.409Z,57.08
2018-09-27T18:40:09.800Z,53.90
2018-09-27T18:42:44.092Z,56.35
2018-09-27T18:45:18.479Z,35.58
2018-09-27T18:47:52.970Z,23.77
2018-09-27T18:50:27.308Z,13.28
2018-09-27T18:53:01.735Z,13.25
2018-09-27T18:55:36.043Z,8.40
2018-09-27T18:58:10.527Z,10.72
2018-09-27T19:00:45.994Z,7.45
2018-09-27T19:03:20.388Z,16.17
2018-09-27T19:05:54.881Z,32.58
2018-09-27T19:08:29.367Z,59.23
2018-09-27T19:11:03.906Z,23.47
2018-09-27T19:13:39.417Z,9.43
2018-09-27T19:16:13.905Z,3.95
2018-09-27T19:18:48.189Z,25.85
2018-09-27T19:21:22.765Z,5.55
2018-09-27T19:23:58.313Z,4.35
2018-09-27T19:26:32.688Z,4.95
2018-09-27T19:29:07.109Z,5.92
2018-09-27T19:31:41.520Z,4.37
2018-09-27T19:34:15.843Z,11.95
2018-09-27T19:36:50.263Z,3.50
2018-09-27T19:39:24.753Z,6.35
2018-09-27T19:41:59.107Z,6.17
2018-09-27T19:44:33.447Z,40.05
2018-09-27T19:47:07.838Z,44.45
2018-09-27T19:49:42.210Z,67.00
2018-09-27T19:52:16.689Z,21.50
2018-09-27T19:54:50.902Z,24.75
2018-09-27T19:57:25.415Z,12.50
2018-09-27T19:59:59.940Z,6.72
2018-09-27T20:02:34.433Z,18.15
2018-09-27T20:05:08.724Z,12.07
2018-09-27T20:07:43.022Z,66.37
2018-09-27T20:10:17.435Z,33.60
2018-09-27T20:12:51.686Z,60.28
2018-09-27T20:15:25.975Z,46.77
2018-09-27T20:18:00.615Z,38.33
2018-09-27T20:20:36.103Z,10.60
2018-09-27T20:23:10.605Z,20.35
2018-09-27T20:25:45.003Z,15.58
2018-09-27T20:28:19.464Z,11.60
2018-09-27T20:30:53.755Z,11.18
2018-09-27T20:33:28.107Z,12.68
2018-09-27T20:36:02.419Z,38.88
2018-09-27T20:38:36.780Z,42.75
2018-09-27T20:41:11.176Z,47.50
2018-09-27T20:43:45.699Z,41.08
2018-09-27T20:46:20.275Z,44.88
2018-09-27T20:48:56.679Z,40.65
2018-09-27T20:51:31.119Z,21.85
2018-09-27T20:54:05.709Z,16.75
2018-09-27T20:56:40.048Z,11.78
2018-09-27T20:59:14.499Z,8.55
2018-09-27T21:01:48.968Z,6.80
2018-09-27T21:04:23.384Z,20.52
2018-09-27T21:06:57.815Z,52.05
2018-09-27T21:09:32.380Z,48.75
2018-09-27T21:12:06.844Z,51.35
2018-09-27T21:14:41.327Z,19.60
2018-09-27T21:17:15.648Z,6.05
2018-09-27T21:19:50.228Z,9.13
2018-09-27T21:22:24.776Z,10.00
2018-09-27T21:24:59.221Z,5.40
2018-09-27T21:27:33.592Z,5.22
2018-09-27T21:30:07.952Z,6.47
2018-09-27T21:32:42.400Z,17.12
2018-09-27T21:35:16.796Z,4.00
2018-09-27T21:37:51.298Z,8.45
2018-09-27T21:40:25.615Z,6.20
2018-09-27T21:42:59.966Z,10.23
2018-09-27T21:45:34.347Z,12.53
2018-09-27T21:48:08.714Z,12.18
2018-09-27T21:50:42.996Z,3.92
2018-09-27T21:53:17.466Z,9.15
2018-09-27T21:55:51.807Z,11.60
2018-09-27T21:58:26.224Z,4.35
2018-09-27T22:01:00.627Z,7.25
2018-09-27T22:03:35.083Z,15.80
2018-09-27T22:06:09.611Z,20.40
2018-09-27T22:08:44.105Z,31.55
2018-09-27T22:11:18.567Z,55.80
2018-09-27T22:13:52.916Z,48.80
2018-09-27T22:16:27.224Z,18.05
2018-09-27T22:19:01.571Z,9.80
2018-09-27T22:21:36.031Z,12.82
2018-09-27T22:24:10.423Z,34.45
2018-09-27T22:26:44.773Z,23.77
2018-09-27T22:29:19.092Z,8.88
2018-09-27T22:31:53.463Z,8.55
2018-09-27T22:34:27.747Z,6.15
2018-09-27T22:37:02.103Z,8.95
2018-09-27T22:39:36.472Z,6.40
2018-09-27T22:42:10.900Z,5.72
2018-09-27T22:44:45.334Z,12.75
2018-09-27T22:47:19.648Z,14.33
2018-09-27T22:49:54.112Z,8.30
2018-09-27T22:52:28.530Z,9.63
2018-09-27T22:55:02.948Z,7.65
2018-09-27T22:57:37.306Z,6.92
2018-09-27T23:00:11.710Z,8.10
2018-09-27T23:02:45.960Z,5.22
2018-09-27T23:05:20.208Z,6.00
2018-09-27T23:07:54.795Z,18.77
2018-09-27T23:10:29.191Z,10.53
2018-09-27T23:13:03.488Z,43.78
2018-09-27T23:15:37.903Z,51.13
2018-09-27T23:18:12.211Z,20.30
2018-09-27T23:20:46.637Z,6.15
2018-09-27T23:23:21.040Z,5.90
2018-09-27T23:25:55.477Z,8.15
2018-09-27T23:28:29.772Z,4.53
2018-09-27T23:31:04.166Z,7.22
2018-09-27T23:33:38.603Z,4.12
2018-09-27T23:36:13.159Z,9.15
2018-09-27T23:38:47.565Z,6.37
2018-09-27T23:41:22.003Z,7.12
2018-09-27T23:43:56.256Z,6.90
2018-09-27T23:46:30.744Z,9.90
2018-09-27T23:49:05.272Z,5.17
2018-09-27T23:51:39.581Z,8.30
2018-09-27T23:54:14.090Z,8.73
2018-09-27T23:56:48.396Z,3.22
2018-09-27T23:59:22.855Z,3.55
